createdAt,value
2019-04-27T00:01:57.956Z,49.90
2019-04-27T00:04:48.672Z,49.80
2019-04-27T00:07:38.456Z,50.30
2019-04-27T00:10:16.395Z,49.80
2019-04-27T00:12:45.115Z,50.20
2019-04-27T00:15:19.541Z,50.10
2019-04-27T00:18:17.710Z,50.90
2019-04-27T00:21:03.591Z,51.80
2019-04-27T00:23:34.028Z,51.80
2019-04-27T00:26:03.222Z,52.40
2019-04-27T00:28:33.195Z,51.90
2019-04-27T00:31:03.314Z,52.60
2019-04-27T00:33:33.824Z,52.90
2019-04-27T00:36:08.723Z,53.20
2019-04-27T00:39:05.179Z,53.20
2019-04-27T00:41:34.217Z,53.20
2019-04-27T00:44:03.647Z,53.40
2019-04-27T00:46:34.380Z,53.50
2019-04-27T00:49:04.583Z,53.50
2019-04-27T00:51:33.390Z,54.30
2019-04-27T00:54:04.666Z,53.60
2019-04-27T00:56:59.348Z,53.30
2019-04-27T01:00:00.171Z,53.40
2019-04-27T01:02:41.157Z,53.30
2019-04-27T01:05:17.149Z,53.40
2019-04-27T01:07:45.868Z,53.30
2019-04-27T01:10:14.981Z,53.30
2019-04-27T01:12:43.924Z,53.70
2019-04-27T01:15:13.814Z,53.60
2019-04-27T01:17:42.474Z,53.50
2019-04-27T01:20:11.592Z,53.40
2019-04-27T01:22:40.138Z,53.40
2019-04-27T01:25:08.840Z,53.00
2019-04-27T01:28:00.327Z,53.40
2019-04-27T01:30:36.496Z,53.40
2019-04-27T01:33:05.026Z,53.30
2019-04-27T01:35:33.721Z,53.30
2019-04-27T01:38:02.796Z,53.40
2019-04-27T01:40:31.750Z,53.20
2019-04-27T01:43:00.107Z,53.30
2019-04-27T01:45:30.979Z,53.30
2019-04-27T01:48:01.490Z,53.20
2019-04-27T01:50:31.365Z,53.60
2019-04-27T01:53:00.115Z,53.60
2019-04-27T01:55:29.870Z,53.50
2019-04-27T01:57:58.746Z,53.50
2019-04-27T02:00:51.697Z,53.60
2019-04-27T02:03:25.171Z,53.80
2019-04-27T02:05:55.541Z,54.00
2019-04-27T02:08:24.663Z,54.10
2019-04-27T02:10:53.277Z,54.20
2019-04-27T02:13:21.799Z,54.20
2019-04-27T02:15:50.512Z,54.40
2019-04-27T02:18:19.846Z,54.50
2019-04-27T02:20:49.234Z,54.70
2019-04-27T02:23:19.229Z,55.00
2019-04-27T02:25:49.650Z,55.00
2019-04-27T02:28:29.557Z,54.80
2019-04-27T02:31:20.033Z,55.00
2019-04-27T02:34:02.480Z,55.00
2019-04-27T02:36:30.989Z,55.10
2019-04-27T02:38:59.622Z,55.10
2019-04-27T02:41:29.780Z,54.90
2019-04-27T02:44:13.560Z,54.90
2019-04-27T02:46:42.311Z,55.00
2019-04-27T02:49:12.715Z,55.10
2019-04-27T02:51:53.336Z,55.70
2019-04-27T02:54:21.764Z,55.80
2019-04-27T02:56:52.657Z,55.90
2019-04-27T02:59:20.613Z,56.00
2019-04-27T03:02:00.723Z,56.00
2019-04-27T03:04:30.389Z,56.00
2019-04-27T03:07:00.294Z,56.10
2019-04-27T03:09:30.470Z,55.90
2019-04-27T03:12:01.415Z,56.10
2019-04-27T03:14:56.229Z,56.20
2019-04-27T03:17:59.564Z,56.40
2019-04-27T03:20:50.492Z,56.40
2019-04-27T03:23:20.029Z,56.80
2019-04-27T03:26:00.347Z,56.70
2019-04-27T03:28:29.842Z,56.80
2019-04-27T03:31:02.495Z,57.40
2019-04-27T03:33:32.417Z,57.10
2019-04-27T03:36:02.584Z,57.00
2019-04-27T03:38:31.421Z,57.20
2019-04-27T03:41:00.590Z,57.10
2019-04-27T03:43:30.320Z,57.10
2019-04-27T03:46:00.429Z,57.10
2019-04-27T03:48:29.952Z,57.00
2019-04-27T03:51:24.069Z,57.10
2019-04-27T03:54:10.446Z,56.80
2019-04-27T03:56:44.632Z,57.20
2019-04-27T03:59:20.259Z,57.30
2019-04-27T04:01:50.658Z,57.40
2019-04-27T04:04:19.846Z,57.30
2019-04-27T04:06:49.519Z,57.50
2019-04-27T04:09:21.095Z,57.50
2019-04-27T04:11:59.151Z,57.50
2019-04-27T04:14:30.257Z,57.40
2019-04-27T04:17:03.025Z,57.70
2019-04-27T04:19:47.918Z,58.20
2019-04-27T04:22:02.201Z,58.40
2019-04-27T04:24:31.796Z,58.60
2019-04-27T04:27:00.475Z,58.90
2019-04-27T04:29:30.796Z,59.40
2019-04-27T04:32:00.498Z,59.30
2019-04-27T04:34:30.583Z,59.30
2019-04-27T04:37:00.452Z,59.40
2019-04-27T04:39:29.727Z,59.30
2019-04-27T04:42:10.668Z,59.40
2019-04-27T04:44:56.940Z,59.20
2019-04-27T04:47:36.632Z,59.70
2019-04-27T04:50:10.728Z,59.80
2019-04-27T04:52:41.815Z,60.00
2019-04-27T04:55:10.776Z,60.10
2019-04-27T04:57:39.986Z,60.30
2019-04-27T05:00:09.884Z,60.60
2019-04-27T05:02:39.815Z,60.90
2019-04-27T05:05:09.415Z,61.50
2019-04-27T05:07:38.837Z,61.50
2019-04-27T05:10:09.014Z,61.70
2019-04-27T05:12:38.696Z,61.90
2019-04-27T05:15:09.173Z,61.90
2019-04-27T05:17:39.737Z,62.00
2019-04-27T05:20:29.496Z,61.90
2019-04-27T05:22:59.405Z,62.40
2019-04-27T05:25:28.706Z,63.00
2019-04-27T05:27:57.251Z,63.30
2019-04-27T05:30:25.782Z,63.40
2019-04-27T05:32:54.181Z,63.40
2019-04-27T05:35:22.655Z,64.10
2019-04-27T05:37:51.250Z,64.50
2019-04-27T05:40:20.178Z,64.50
2019-04-27T05:42:55.082Z,64.90
2019-04-27T05:46:36.814Z,65.60
2019-04-27T05:49:09.379Z,65.90
2019-04-27T05:51:40.536Z,66.00
2019-04-27T05:54:10.379Z,65.30
2019-04-27T05:56:41.049Z,65.00
2019-04-27T05:59:09.535Z,65.60
2019-04-27T06:01:39.108Z,66.30
2019-04-27T06:04:08.978Z,67.10
2019-04-27T06:06:39.705Z,67.40
2019-04-27T06:09:09.465Z,67.20
2019-04-27T06:11:39.837Z,67.90
2019-04-27T06:14:09.657Z,67.70
2019-04-27T06:16:39.576Z,68.60
2019-04-27T06:19:09.580Z,67.90
2019-04-27T06:21:40.112Z,67.90
2019-04-27T06:24:09.171Z,68.70
2019-04-27T06:26:40.010Z,68.80
2019-04-27T06:29:09.484Z,69.00
2019-04-27T06:31:39.634Z,69.10
2019-04-27T06:34:09.837Z,68.40
2019-04-27T06:36:38.827Z,67.50
2019-04-27T06:39:09.785Z,67.70
2019-04-27T06:41:40.009Z,68.00
2019-04-27T06:44:11.007Z,68.00
2019-04-27T06:46:40.329Z,67.00
2019-04-27T06:49:11.053Z,67.30
2019-04-27T06:51:40.152Z,68.00
2019-04-27T06:54:09.300Z,67.60
2019-04-27T06:56:39.787Z,67.30
2019-04-27T06:59:08.858Z,65.10
2019-04-27T07:01:38.949Z,64.60
2019-04-27T07:04:08.864Z,64.90
2019-04-27T07:06:51.120Z,66.20
2019-04-27T07:09:09.629Z,66.50
2019-04-27T07:11:39.480Z,67.60
2019-04-27T07:14:11.263Z,68.10
2019-04-27T07:16:39.282Z,67.50
2019-04-27T07:19:09.412Z,67.20
2019-04-27T07:21:40.005Z,67.00
2019-04-27T07:24:09.141Z,66.50
2019-04-27T07:26:39.120Z,66.60
2019-04-27T07:29:09.580Z,66.50
2019-04-27T07:31:40.001Z,66.70
2019-04-27T07:34:09.456Z,66.40
2019-04-27T07:36:39.314Z,67.70
2019-04-27T07:39:09.653Z,68.80
2019-04-27T07:41:39.766Z,68.90
2019-04-27T07:44:29.337Z,68.40
2019-04-27T07:47:15.922Z,68.10
2019-04-27T07:49:45.381Z,68.60
2019-04-27T07:52:15.044Z,67.90
2019-04-27T07:54:45.140Z,67.70
2019-04-27T07:57:15.347Z,67.20
2019-04-27T07:59:43.922Z,67.30
2019-04-27T08:02:13.849Z,67.10
2019-04-27T08:04:42.909Z,67.30
2019-04-27T08:07:11.281Z,67.40
2019-04-27T08:09:39.922Z,68.20
2019-04-27T08:12:08.183Z,69.00
2019-04-27T08:14:38.470Z,69.30
2019-04-27T08:17:06.918Z,69.80
2019-04-27T08:19:35.536Z,69.50
2019-04-27T08:22:04.494Z,69.10
2019-04-27T08:24:33.582Z,68.70
2019-04-27T08:27:39.559Z,67.60
2019-04-27T08:30:16.110Z,67.50
2019-04-27T08:32:46.162Z,67.80
2019-04-27T08:35:14.862Z,67.70
2019-04-27T08:37:43.674Z,67.00
2019-04-27T08:40:13.163Z,66.60
2019-04-27T08:42:42.232Z,66.00
2019-04-27T08:45:11.270Z,66.40
2019-04-27T08:47:41.775Z,66.40
2019-04-27T08:50:11.557Z,66.60
2019-04-27T08:52:41.868Z,66.30
2019-04-27T08:55:11.331Z,66.10
2019-04-27T08:57:41.887Z,67.10
2019-04-27T09:00:10.827Z,66.40
2019-04-27T09:02:46.591Z,65.70
2019-04-27T09:05:09.902Z,64.20
2019-04-27T09:08:04.671Z,64.40
2019-04-27T09:10:42.264Z,64.40
2019-04-27T09:13:23.547Z,64.30
2019-04-27T09:16:11.620Z,63.90
2019-04-27T09:18:41.078Z,64.80
2019-04-27T09:21:10.633Z,64.30
2019-04-27T09:23:39.565Z,63.70
2019-04-27T09:26:09.516Z,63.20
2019-04-27T09:28:38.805Z,63.80
2019-04-27T09:31:09.236Z,64.10
2019-04-27T09:33:37.572Z,63.90
2019-04-27T09:36:06.226Z,62.90
2019-04-27T09:38:35.821Z,62.20
2019-04-27T09:41:07.026Z,62.90
2019-04-27T09:43:36.773Z,63.40
2019-04-27T09:46:05.869Z,62.90
2019-04-27T09:48:36.163Z,63.70
2019-04-27T09:51:06.465Z,64.30
2019-04-27T09:53:36.470Z,63.50
2019-04-27T09:56:06.669Z,63.30
2019-04-27T09:58:37.496Z,63.20
2019-04-27T10:01:06.691Z,62.70
2019-04-27T10:03:36.179Z,63.00
2019-04-27T10:06:05.964Z,63.70
2019-04-27T10:08:36.669Z,64.00
2019-04-27T10:11:05.943Z,63.90
2019-04-27T10:13:36.233Z,64.70
2019-04-27T10:16:05.476Z,64.60
2019-04-27T10:18:34.054Z,63.80
2019-04-27T10:21:02.669Z,63.70
2019-04-27T10:23:31.425Z,62.90
2019-04-27T10:26:00.400Z,62.70
2019-04-27T10:28:29.745Z,62.80
2019-04-27T10:30:58.809Z,64.00
2019-04-27T10:33:29.037Z,64.00
2019-04-27T10:35:57.573Z,64.20
2019-04-27T10:38:26.166Z,64.90
2019-04-27T10:40:54.990Z,65.20
2019-04-27T10:43:23.719Z,64.80
2019-04-27T10:45:52.398Z,64.60
2019-04-27T10:48:20.806Z,65.10
2019-04-27T10:50:49.726Z,65.00
2019-04-27T10:53:18.501Z,65.30
2019-04-27T10:55:47.123Z,65.40
2019-04-27T10:58:16.952Z,65.10
2019-04-27T11:00:51.386Z,65.00
2019-04-27T11:03:39.811Z,65.30
2019-04-27T11:06:27.919Z,66.40
2019-04-27T11:08:57.087Z,66.70
2019-04-27T11:11:25.923Z,66.90
2019-04-27T11:13:57.240Z,66.00
2019-04-27T11:16:26.674Z,65.60
2019-04-27T11:18:56.147Z,64.60
2019-04-27T11:21:26.170Z,64.70
2019-04-27T11:23:55.982Z,65.10
2019-04-27T11:26:26.211Z,65.00
2019-04-27T11:28:55.036Z,64.90
2019-04-27T11:31:23.338Z,65.20
2019-04-27T11:33:52.882Z,65.60
2019-04-27T11:36:30.985Z,65.30
2019-04-27T11:39:02.468Z,65.60
2019-04-27T11:41:31.190Z,65.60
2019-04-27T11:44:00.111Z,65.90
2019-04-27T11:46:29.990Z,65.70
2019-04-27T11:48:58.692Z,66.30
2019-04-27T11:51:27.035Z,66.60
2019-04-27T11:53:55.900Z,66.80
2019-04-27T11:56:24.341Z,67.10
2019-04-27T11:58:52.867Z,66.90
2019-04-27T12:01:23.703Z,67.10
2019-04-27T12:03:52.369Z,67.30
2019-04-27T12:06:20.986Z,67.60
2019-04-27T12:08:49.733Z,67.90
2019-04-27T12:11:18.755Z,67.40
2019-04-27T12:13:47.713Z,67.20
2019-04-27T12:16:17.619Z,67.30
2019-04-27T12:18:48.858Z,66.90
2019-04-27T12:21:17.217Z,66.40
2019-04-27T12:23:47.244Z,65.90
2019-04-27T12:26:30.134Z,66.20
2019-04-27T12:29:00.313Z,66.10
2019-04-27T12:31:38.043Z,66.10
2019-04-27T12:34:06.991Z,66.70
2019-04-27T12:36:35.994Z,66.80
2019-04-27T12:39:11.935Z,67.40
2019-04-27T12:41:40.927Z,67.20
2019-04-27T12:44:10.191Z,67.30
2019-04-27T12:46:38.935Z,68.00
2019-04-27T12:49:08.187Z,67.70
2019-04-27T12:51:37.348Z,67.20
2019-04-27T12:54:12.555Z,67.60
2019-04-27T12:57:16.522Z,68.00
2019-04-27T12:59:57.177Z,67.80
2019-04-27T13:02:30.532Z,68.40
2019-04-27T13:04:59.458Z,67.90
2019-04-27T13:07:28.405Z,67.80
2019-04-27T13:09:56.792Z,68.40
2019-04-27T13:12:27.325Z,68.70
2019-04-27T13:14:56.070Z,68.80
2019-04-27T13:17:26.420Z,69.10
2019-04-27T13:19:56.460Z,69.20
2019-04-27T13:22:25.413Z,69.50
2019-04-27T13:24:53.866Z,69.90
2019-04-27T13:27:22.532Z,70.00
2019-04-27T13:29:51.231Z,70.20
2019-04-27T13:32:19.587Z,70.00
2019-04-27T13:34:48.240Z,70.00
2019-04-27T13:37:55.927Z,70.40
2019-04-27T13:40:26.048Z,70.70
2019-04-27T13:43:14.411Z,72.40
2019-04-27T13:46:05.438Z,72.30
2019-04-27T13:48:53.608Z,72.20
2019-04-27T13:51:53.709Z,72.70
2019-04-27T13:54:26.484Z,72.60
2019-04-27T13:56:53.216Z,73.40
2019-04-27T13:59:21.908Z,73.10
2019-04-27T14:01:50.955Z,73.70
2019-04-27T14:04:21.716Z,74.70
2019-04-27T14:06:50.147Z,75.70
2019-04-27T14:09:18.840Z,76.00
2019-04-27T14:11:48.235Z,76.40
2019-04-27T14:14:18.429Z,76.70
2019-04-27T14:16:47.327Z,77.00
2019-04-27T14:19:15.751Z,76.90
2019-04-27T14:21:44.347Z,77.10
2019-04-27T14:24:12.950Z,77.60
2019-04-27T14:26:41.259Z,78.10
2019-04-27T14:29:09.870Z,78.80
2019-04-27T14:31:39.631Z,79.40
2019-04-27T14:34:09.104Z,79.10
2019-04-27T14:36:40.383Z,78.40
2019-04-27T14:39:10.695Z,78.20
2019-04-27T14:41:40.647Z,78.00
2019-04-27T14:44:10.695Z,78.40
2019-04-27T14:46:39.612Z,79.00
2019-04-27T14:49:08.289Z,79.00
2019-04-27T14:51:39.903Z,80.10
2019-04-27T14:54:09.112Z,79.30
2019-04-27T14:56:38.666Z,78.40
2019-04-27T14:59:07.607Z,78.50
2019-04-27T15:01:39.413Z,79.20
2019-04-27T15:04:08.350Z,79.10
2019-04-27T15:06:38.934Z,79.40
2019-04-27T15:09:07.891Z,79.80
2019-04-27T15:11:36.323Z,79.70
2019-04-27T15:14:04.933Z,79.90
2019-04-27T15:16:33.570Z,80.30
2019-04-27T15:19:05.760Z,80.50
2019-04-27T15:21:38.879Z,80.60
2019-04-27T15:24:10.031Z,80.50
2019-04-27T15:26:36.067Z,80.80
2019-04-27T15:29:06.469Z,80.60
2019-04-27T15:31:40.889Z,79.80
2019-04-27T15:34:29.132Z,79.20
2019-04-27T15:37:22.256Z,78.90
2019-04-27T15:40:12.781Z,78.20
2019-04-27T15:42:51.688Z,77.60
2019-04-27T15:45:20.575Z,77.50
2019-04-27T15:47:53.994Z,77.10
2019-04-27T15:50:18.261Z,77.20
2019-04-27T15:52:48.771Z,78.20
2019-04-27T15:55:31.821Z,79.00
2019-04-27T15:57:50.061Z,78.90
2019-04-27T16:00:23.362Z,79.00
2019-04-27T16:02:52.777Z,79.30
2019-04-27T16:05:23.455Z,79.00
2019-04-27T16:07:54.640Z,79.30
2019-04-27T16:10:23.345Z,80.00
2019-04-27T16:13:05.858Z,80.60
2019-04-27T16:15:22.470Z,80.70
2019-04-27T16:17:55.903Z,80.70
2019-04-27T16:20:29.272Z,81.40
2019-04-27T16:22:52.007Z,82.30
2019-04-27T16:25:23.650Z,82.90
2019-04-27T16:27:51.538Z,83.60
2019-04-27T16:30:20.644Z,83.90
2019-04-27T16:32:49.458Z,83.10
2019-04-27T16:35:19.461Z,82.70
2019-04-27T16:38:01.461Z,82.70
2019-04-27T16:40:32.724Z,83.20
2019-04-27T16:43:02.874Z,82.10
2019-04-27T16:45:31.421Z,82.00
2019-04-27T16:48:02.079Z,81.60
2019-04-27T16:50:31.115Z,81.70
2019-04-27T16:53:01.077Z,82.30
2019-04-27T16:55:34.087Z,82.60
2019-04-27T16:58:00.521Z,82.60
2019-04-27T17:00:30.347Z,82.20
2019-04-27T17:03:02.641Z,82.00
2019-04-27T17:05:34.265Z,81.80
2019-04-27T17:08:03.961Z,82.00
2019-04-27T17:10:32.705Z,82.40
2019-04-27T17:13:06.101Z,82.00
2019-04-27T17:15:53.723Z,82.80
2019-04-27T17:18:32.494Z,83.30
2019-04-27T17:21:15.846Z,83.00
2019-04-27T17:23:31.746Z,82.50
2019-04-27T17:26:09.291Z,82.50
2019-04-27T17:28:39.230Z,82.10
2019-04-27T17:31:08.798Z,82.40
2019-04-27T17:33:44.629Z,82.30
2019-04-27T17:36:16.388Z,82.10
2019-04-27T17:38:47.273Z,81.60
2019-04-27T17:41:14.846Z,81.60
2019-04-27T17:43:43.633Z,81.30
2019-04-27T17:46:13.205Z,81.00
2019-04-27T17:48:42.222Z,81.00
2019-04-27T17:51:10.825Z,80.90
2019-04-27T17:53:39.187Z,80.90
2019-04-27T17:56:08.579Z,80.80
2019-04-27T17:58:39.825Z,80.20
2019-04-27T18:01:09.373Z,80.50
2019-04-27T18:03:38.755Z,80.70
2019-04-27T18:06:08.792Z,80.80
2019-04-27T18:08:40.393Z,81.00
2019-04-27T18:11:09.417Z,81.20
2019-04-27T18:13:38.839Z,80.70
2019-04-27T18:16:09.148Z,80.40
2019-04-27T18:18:46.244Z,80.70
2019-04-27T18:21:15.076Z,81.00
2019-04-27T18:23:49.376Z,81.40
2019-04-27T18:26:46.206Z,81.40
2019-04-27T18:29:04.617Z,81.40
2019-04-27T18:31:33.256Z,81.50
2019-04-27T18:34:01.943Z,81.20
2019-04-27T18:36:30.908Z,80.90
2019-04-27T18:38:59.270Z,80.80
2019-04-27T18:41:28.748Z,81.30
2019-04-27T18:43:59.927Z,81.30
2019-04-27T18:46:28.301Z,81.70
2019-04-27T18:49:13.783Z,81.50
2019-04-27T18:52:04.318Z,81.60
2019-04-27T18:54:33.136Z,81.70
2019-04-27T18:57:04.786Z,82.10
2019-04-27T18:59:33.326Z,81.90
2019-04-27T19:02:02.514Z,81.90
2019-04-27T19:04:30.973Z,82.10
2019-04-27T19:07:01.282Z,82.20
2019-04-27T19:09:31.766Z,82.30
2019-04-27T19:12:00.259Z,82.50
2019-04-27T19:14:30.362Z,82.80
2019-04-27T19:16:59.127Z,82.60
2019-04-27T19:19:28.124Z,82.00
2019-04-27T19:21:58.755Z,82.20
2019-04-27T19:24:28.195Z,82.40
2019-04-27T19:27:17.689Z,82.10
2019-04-27T19:29:43.612Z,81.80
2019-04-27T19:32:12.423Z,81.80
2019-04-27T19:34:41.667Z,82.60
2019-04-27T19:37:10.367Z,81.70
2019-04-27T19:39:39.333Z,81.40
2019-04-27T19:42:08.046Z,81.10
2019-04-27T19:44:38.812Z,81.00
2019-04-27T19:47:10.290Z,80.90
2019-04-27T19:49:38.878Z,80.50
2019-04-27T19:52:08.657Z,80.30
2019-04-27T19:54:37.519Z,80.30
2019-04-27T19:57:05.966Z,80.20
2019-04-27T19:59:40.933Z,80.10
2019-04-27T20:02:13.921Z,80.10
2019-04-27T20:04:44.651Z,79.60
2019-04-27T20:07:14.182Z,79.70
2019-04-27T20:09:50.615Z,79.50
2019-04-27T20:12:21.314Z,79.20
2019-04-27T20:14:55.980Z,79.10
2019-04-27T20:17:31.113Z,79.30
2019-04-27T20:20:00.629Z,79.50
2019-04-27T20:22:31.213Z,79.60
2019-04-27T20:25:01.932Z,79.90
2019-04-27T20:27:32.155Z,80.00
2019-04-27T20:30:03.181Z,79.90
2019-04-27T20:32:31.877Z,79.60
2019-04-27T20:35:01.843Z,79.70
2019-04-27T20:37:31.403Z,79.90
2019-04-27T20:40:01.953Z,79.80
2019-04-27T20:42:31.499Z,79.40
2019-04-27T20:45:02.073Z,79.20
2019-04-27T20:47:31.830Z,79.20
2019-04-27T20:50:01.862Z,79.20
2019-04-27T20:52:58.795Z,79.30
2019-04-27T20:55:27.159Z,79.80
2019-04-27T20:58:01.826Z,79.90
2019-04-27T21:00:26.227Z,80.00
2019-04-27T21:03:14.382Z,80.20
2019-04-27T21:06:07.239Z,80.20
2019-04-27T21:08:38.009Z,80.40
2019-04-27T21:11:08.477Z,80.30
2019-04-27T21:13:37.222Z,80.20
2019-04-27T21:16:07.087Z,80.30
2019-04-27T21:18:35.815Z,80.30
2019-04-27T21:21:04.542Z,80.50
2019-04-27T21:23:33.240Z,80.10
2019-04-27T21:26:02.507Z,79.90
2019-04-27T21:28:31.674Z,79.90
2019-04-27T21:31:00.195Z,80.00
2019-04-27T21:33:31.688Z,80.00
2019-04-27T21:36:01.762Z,80.00
2019-04-27T21:38:30.189Z,80.10
2019-04-27T21:40:58.927Z,80.10
2019-04-27T21:43:27.272Z,80.10
2019-04-27T21:45:55.643Z,79.80
2019-04-27T21:48:24.468Z,80.10
2019-04-27T21:50:53.046Z,80.00
2019-04-27T21:53:41.141Z,80.30
2019-04-27T21:56:11.217Z,80.40
2019-04-27T21:58:42.056Z,80.80
2019-04-27T22:01:27.732Z,81.20
2019-04-27T22:03:56.577Z,81.50
2019-04-27T22:06:25.692Z,81.60
2019-04-27T22:08:54.735Z,81.50
2019-04-27T22:11:25.182Z,81.60
2019-04-27T22:13:53.591Z,81.70
2019-04-27T22:16:22.330Z,81.70
2019-04-27T22:18:51.918Z,81.90
2019-04-27T22:21:21.620Z,82.20
2019-04-27T22:24:01.314Z,82.10
2019-04-27T22:26:31.452Z,82.10
2019-04-27T22:29:01.611Z,82.10
2019-04-27T22:31:31.357Z,82.40
2019-04-27T22:34:01.811Z,82.70
2019-04-27T22:36:30.554Z,82.70
2019-04-27T22:39:03.221Z,82.50
2019-04-27T22:41:41.681Z,82.60
2019-04-27T22:44:27.105Z,82.70
2019-04-27T22:46:56.235Z,82.70
2019-04-27T22:49:24.953Z,82.20
2019-04-27T22:51:54.877Z,82.20
2019-04-27T22:54:23.876Z,82.30
2019-04-27T22:56:54.328Z,82.10
2019-04-27T22:59:29.222Z,81.90
2019-04-27T23:02:12.049Z,82.50
2019-04-27T23:04:44.489Z,81.60
2019-04-27T23:07:13.167Z,81.80
2019-04-27T23:09:43.390Z,81.60
2019-04-27T23:12:14.312Z,81.70
2019-04-27T23:14:42.843Z,82.10
2019-04-27T23:17:28.504Z,82.50
2019-04-27T23:19:57.119Z,82.60
2019-04-27T23:22:26.077Z,83.50
2019-04-27T23:24:54.537Z,82.50
2019-04-27T23:27:22.910Z,82.60
2019-04-27T23:29:51.642Z,82.40
2019-04-27T23:32:27.172Z,82.50
2019-04-27T23:34:55.705Z,82.30
2019-04-27T23:37:24.480Z,82.00
2019-04-27T23:39:53.112Z,82.00
2019-04-27T23:42:21.801Z,82.60
2019-04-27T23:44:50.150Z,82.60
2019-04-27T23:47:18.663Z,82.20
2019-04-27T23:49:50.859Z,82.10
2019-04-27T23:52:24.440Z,82.10
2019-04-27T23:54:52.926Z,82.50
2019-04-27T23:57:21.885Z,83.30
2019-04-27T23:59:51.508Z,82.30
